Delhi, LA (71232)

4:24 PM CDT on July 26, 2017 (GMT -0500)
Parish Line Road | | Change Station
Active Advisory: Heat Advisory

Elev 52 ft 32.39 °N, 91.56 °W | Updated 16 seconds ago

Clear
Clear
98.1 °F
Feels Like 108 °F
N
1.0
Wind Variable Wind from SW

Today
High -- | Low -- °F
--% Chance of Precip.
Yesterday
High -- | Low -- °F
Precip. -- in
Pressure 30.08 in
Visibility 10.0 miles
Clouds Clear
Heat Index 108 °F
Dew Point 72 °F
Humidity 44%
Rainfall 0.00 in
Snow Depth Not available.
6:16 AM 8:07 PM
Waxing Crescent, 15% visible
METAR KTVR 262053Z AUTO 00000KT 10SM CLR 33/22 A3006 RMK AO2 SLP186 T03330217 58019
Pressure 30.08 in
Visibility 10.0 miles
Clouds Clear
Heat Index 108 °F
Dew Point 72 °F
Humidity 44%
Rainfall 0.00 in
Snow Depth Not available.
6:16 AM 8:07 PM
Waxing Crescent, 15% visible
METAR KTVR 262053Z AUTO 00000KT 10SM CLR 33/22 A3006 RMK AO2 SLP186 T03330217 58019

Get Your Daily Forecast Email!

Thanks for signing up!

Be on the lookout for a verification email in your inbox.

You'll start receiving severe weather alerts in your inbox..

×

10-Day Weather Forecast

Almanac

Astronomy

Jul. 26, 2017 Rise Set
Actual Time
Civil Twilight
Nautical Twilight
Astronomical Twilight
Moon
Length of Visible Light
Length of Day
Tomorrow will be .
, % of the Moon is Illuminated

Today's Extremes

State Highs State Lows

Community

WunderPhotos

Category 6

Welcome to Category 6. This is the collective home for Weather Underground's featured writeups by Dr. Jeff Masters (right), Bob Henson (left), Chris Burt, and other regular contributors.

Nearby

Air Quality

  Air Quality AQ Index Pollutant
Not available.

Snow Depth

Station Depth Elevation

Earthquake Activity

City Distance Mag. Time & Date
Minimum magnitude displayed is 2.5.

Coastal Water Temperatures

Place Temperature

Stations

Nearby Weather Stations

Station Location Temp. Windchill Dew Point Humidity Wind Precip. Elev Updated Type
                   

Watches & Warnings

Heat Advisory
Issued: 2:47 PM CDT Jul. 26, 2017 – National Weather Service

... Heat advisory now in effect until 7 am CDT Friday...

* temperature... high temperatures in the mid to upper 90s with
peak afternoon heat index values ranging from 104 to 109
degrees.

* Impacts... heat related illnesses may be possible for those
outdoors in unshaded areas without proper precautions taken.

Precautionary/preparedness actions...

A heat advisory means that a period of hot temperatures is
expected. The combination of hot temperatures and high humidity
will combine to create a situation in which heat illnesses are
possible. Drink plenty of fluids, stay in an air-conditioned
room, stay out of the sun, and check up on relatives and
neighbors.



23